Tacoma Park, South Dakota
Current Conditions -  °F | °C
As of 8:25 AM on Sunday 21 Dec 2014 (Local Time) from KABR Reporting Station
Haze Haze  
Wind Chill: 21°   Ceiling: 200
Heat Index: 31°   Visibility: 1mi
Dew Point: 30°   Wind: 13mph
Humidity: 96%   Direction: 160°SSE
Pressure: 29.68"   Gusts: NA
Location:  45.6832°N, 98.2967°W
Report Text: KABR 211425Z AUTO 16011KT 1SM BR OVC002 M01/M01 A2968 RMK AO2 I1000 T10061011
Loading
Personal Weather Stations






























Interactive Weather Map New forecast layout! Learn more

10-Day Weather Forecast

Advertisements
Track Severe Weather on mobile